Time;durP1;ratioP1;P1;durP2;ratioP2;P2;SDS_P1;SDS_P2;PMS_P1;PMS_P2;Temp;Humidity;BMP_temperature;BMP_pressure;BME280_temperature;BME280_humidity;BME280_pressure;Samples;Min_cycle;Max_cycle;Signal;HPM_P1;HPM_P2
2022/12/09 00:00:01;;;;;;;22.00;13.70;;;3.70;99.90;;;;;;5012644;28;20170;-77
2022/12/09 00:02:28;;;;;;;20.87;13.60;;;3.80;99.90;;;;;;4996592;28;20237;-77
2022/12/09 00:04:54;;;;;;;21.80;13.73;;;3.90;99.90;;;;;;4995590;28;20217;-77
2022/12/09 00:07:19;;;;;;;20.73;14.60;;;3.70;99.90;;;;;;4996786;28;20170;-77
2022/12/09 00:09:48;;;;;;;24.57;15.63;;;3.50;99.90;;;;;;4995344;28;20243;-77
2022/12/09 00:12:14;;;;;;;24.07;14.77;;;3.60;99.90;;;;;;5014548;28;20192;-75
2022/12/09 00:14:39;;;;;;;22.93;14.90;;;3.50;99.90;;;;;;5015947;28;20169;-77
2022/12/09 00:17:05;;;;;;;25.40;13.43;;;3.60;99.90;;;;;;5014749;28;20184;-76
2022/12/09 00:19:30;;;;;;;25.77;14.37;;;3.50;99.90;;;;;;5015771;28;20224;-76
2022/12/09 00:21:56;;;;;;;25.87;14.97;;;3.50;99.90;;;;;;5013782;28;20196;-77
2022/12/09 00:24:22;;;;;;;21.17;14.70;;;3.70;99.90;;;;;;5014775;28;20533;-76
2022/12/09 00:26:47;;;;;;;26.87;15.03;;;3.80;99.90;;;;;;5015053;28;20667;-77
2022/12/09 00:29:13;;;;;;;24.67;15.30;;;3.80;99.90;;;;;;5015562;28;20177;-77
2022/12/09 00:31:38;;;;;;;26.87;15.40;;;3.90;99.90;;;;;;5015408;28;20643;-77
2022/12/09 00:34:09;;;;;;;24.17;14.90;;;3.80;99.90;;;;;;5014180;28;20224;-76
2022/12/09 00:36:35;;;;;;;23.33;14.77;;;3.80;99.90;;;;;;5015431;28;20227;-77
2022/12/09 00:39:00;;;;;;;23.77;14.23;;;3.50;99.90;;;;;;5014752;28;20631;-73
2022/12/09 00:41:27;;;;;;;28.00;15.87;;;3.50;99.90;;;;;;5015036;28;20205;-74
2022/12/09 00:43:53;;;;;;;25.20;15.43;;;3.60;99.90;;;;;;5015040;28;20579;-75
2022/12/09 00:46:19;;;;;;;25.37;15.53;;;3.70;99.90;;;;;;5015049;28;20205;-74
2022/12/09 00:48:45;;;;;;;28.00;15.03;;;3.60;99.90;;;;;;5014713;28;20169;-74
2022/12/09 00:51:14;;;;;;;28.60;14.97;;;3.60;99.90;;;;;;5014837;28;20168;-74
2022/12/09 00:53:40;;;;;;;22.93;14.83;;;3.30;99.90;;;;;;5014574;28;20225;-74
2022/12/09 00:56:07;;;;;;;28.47;15.90;;;3.10;99.90;;;;;;5013498;28;20181;-74
2022/12/09 00:58:33;;;;;;;26.90;16.27;;;3.30;99.90;;;;;;5013286;28;20664;-74
2022/12/09 01:00:59;;;;;;;26.77;16.00;;;3.40;99.90;;;;;;5013437;28;20279;-74
2022/12/09 01:03:25;;;;;;;25.50;16.13;;;3.50;99.90;;;;;;5014898;28;20157;-75
2022/12/09 01:05:51;;;;;;;29.80;17.20;;;3.50;99.90;;;;;;5014635;28;20169;-74
2022/12/09 01:08:17;;;;;;;29.10;17.17;;;3.50;99.90;;;;;;5014432;28;20532;-73
2022/12/09 01:10:44;;;;;;;30.97;17.17;;;3.50;99.90;;;;;;5013229;28;20169;-74
2022/12/09 01:13:11;;;;;;;30.83;17.90;;;3.40;99.90;;;;;;5013765;28;20173;-74
2022/12/09 01:15:37;;;;;;;24.67;15.97;;;3.30;99.90;;;;;;5014413;28;20212;-74
2022/12/09 01:18:03;;;;;;;28.43;17.10;;;3.10;99.90;;;;;;5012804;28;20212;-74
2022/12/09 01:20:28;;;;;;;29.63;16.90;;;3.20;99.90;;;;;;5014222;28;20677;-74
2022/12/09 01:22:54;;;;;;;26.40;16.87;;;3.00;99.90;;;;;;5014374;28;20166;-73
2022/12/09 01:25:20;;;;;;;27.97;17.63;;;3.10;99.90;;;;;;5012889;28;20173;-74
2022/12/09 01:27:46;;;;;;;29.60;17.00;;;3.00;99.90;;;;;;5012514;28;20606;-74
2022/12/09 01:30:13;;;;;;;30.17;17.33;;;2.90;99.90;;;;;;5012700;28;20185;-74
2022/12/09 01:32:40;;;;;;;32.30;18.13;;;3.10;99.90;;;;;;5014215;28;20177;-74
2022/12/09 01:35:06;;;;;;;29.70;17.40;;;3.00;99.90;;;;;;5014077;28;20164;-74
2022/12/09 01:37:32;;;;;;;31.47;17.13;;;2.90;99.90;;;;;;5012875;28;20173;-73
2022/12/09 01:40:00;;;;;;;32.47;18.43;;;2.80;99.90;;;;;;5013861;28;20596;-73
2022/12/09 01:42:28;;;;;;;30.97;17.20;;;2.80;99.90;;;;;;5014068;28;20707;-74
2022/12/09 01:45:19;;;;;;;31.00;17.20;;;2.60;99.90;;;;;;5013994;28;20192;-74
2022/12/09 01:47:55;;;;;;;33.63;17.10;;;2.80;99.90;;;;;;5013721;28;20618;-74
2022/12/09 01:50:24;;;;;;;32.03;17.43;;;2.70;99.90;;;;;;5013807;28;20600;-74
2022/12/09 01:52:50;;;;;;;28.90;18.03;;;2.80;99.90;;;;;;5013863;28;20657;-74
2022/12/09 01:55:17;;;;;;;29.17;18.20;;;2.80;99.90;;;;;;5013568;28;20192;-74
2022/12/09 01:57:44;;;;;;;31.63;17.00;;;2.80;99.90;;;;;;5013856;28;20228;-74
2022/12/09 02:00:11;;;;;;;29.47;18.07;;;2.70;99.90;;;;;;5012351;28;20169;-74
2022/12/09 02:02:39;;;;;;;31.20;18.00;;;2.70;99.90;;;;;;5012361;28;20225;-74
2022/12/09 02:05:05;;;;;;;31.93;18.30;;;2.70;99.90;;;;;;5013416;28;20168;-74
2022/12/09 02:07:33;;;;;;;27.93;17.87;;;2.70;99.90;;;;;;5013462;28;20256;-74
2022/12/09 02:09:59;;;;;;;35.17;17.87;;;2.60;99.90;;;;;;5013232;28;20161;-74
2022/12/09 02:12:29;;;;;;;34.20;19.37;;;2.50;99.90;;;;;;5012410;28;20304;-75
2022/12/09 02:15:19;;;;;;;31.77;18.87;;;2.50;99.90;;;;;;5013461;28;20517;-75
2022/12/09 02:18:02;;;;;;;31.70;17.90;;;2.50;99.90;;;;;;5012057;28;20173;-74
2022/12/09 02:20:51;;;;;;;34.67;19.03;;;2.50;99.90;;;;;;5013328;28;20669;-74
2022/12/09 02:23:27;;;;;;;34.33;18.90;;;2.70;99.90;;;;;;5012952;28;20740;-74
2022/12/09 02:26:35;;;;;;;30.23;18.53;;;2.80;99.90;;;;;;5012709;28;20153;-74
2022/12/09 02:29:08;;;;;;;36.60;19.07;;;2.80;99.90;;;;;;5011421;28;20177;-74
2022/12/09 02:32:01;;;;;;;36.20;19.47;;;2.70;99.90;;;;;;5013164;28;20188;-74
2022/12/09 02:34:31;;;;;;;36.83;19.33;;;2.80;99.90;;;;;;5012721;28;20188;-74
2022/12/09 02:37:25;;;;;;;34.70;18.73;;;2.60;99.90;;;;;;5011452;28;20691;-74
2022/12/09 02:39:59;;;;;;;33.17;19.20;;;2.60;99.90;;;;;;5012182;28;20599;-74
2022/12/09 02:42:32;;;;;;;41.90;19.60;;;2.50;99.90;;;;;;5013126;28;20197;-74
2022/12/09 02:45:02;;;;;;;40.87;21.47;;;2.70;99.90;;;;;;5012501;28;20176;-74
2022/12/09 02:47:31;;;;;;;38.93;19.60;;;2.70;99.90;;;;;;5012778;28;20161;-75
2022/12/09 02:50:04;;;;;;;36.53;20.13;;;2.60;99.90;;;;;;5012658;28;20173;-74
2022/12/09 02:52:32;;;;;;;39.60;19.97;;;2.40;99.90;;;;;;5012283;28;20252;-74
2022/12/09 02:55:00;;;;;;;38.33;19.07;;;2.30;99.90;;;;;;5012673;28;20516;-75
2022/12/09 02:57:29;;;;;;;35.37;19.03;;;2.30;99.90;;;;;;5012848;28;20180;-74
2022/12/09 02:59:54;;;;;;;40.73;19.23;;;2.30;99.90;;;;;;5012818;28;20185;-74
2022/12/09 03:02:27;;;;;;;36.17;18.57;;;2.30;99.90;;;;;;5012373;28;20205;-74
2022/12/09 03:05:17;;;;;;;39.77;20.13;;;2.50;99.90;;;;;;5012939;28;20252;-74
2022/12/09 03:08:01;;;;;;;40.77;19.23;;;2.80;99.90;;;;;;5012638;28;20716;-75
2022/12/09 03:10:41;;;;;;;36.63;19.63;;;2.70;99.90;;;;;;5012748;28;20336;-74
2022/12/09 03:13:25;;;;;;;41.23;19.30;;;2.60;99.90;;;;;;5012600;28;20165;-74
2022/12/09 03:16:00;;;;;;;38.13;18.53;;;2.40;99.90;;;;;;5011415;28;20177;-74
2022/12/09 03:18:29;;;;;;;39.50;20.53;;;2.30;99.90;;;;;;5011389;28;20223;-75
2022/12/09 03:20:55;;;;;;;39.17;20.43;;;2.40;99.90;;;;;;5012352;28;20200;-74
2022/12/09 03:23:25;;;;;;;42.83;22.20;;;2.50;99.90;;;;;;5012709;28;20635;-74
2022/12/09 03:25:53;;;;;;;43.47;22.90;;;2.60;99.90;;;;;;5012669;28;20579;-74
2022/12/09 03:28:39;;;;;;;55.80;25.10;;;2.50;99.90;;;;;;5011223;28;20169;-74
2022/12/09 03:31:11;;;;;;;48.00;24.53;;;2.40;99.90;;;;;;5010948;28;20192;-74
2022/12/09 03:33:36;;;;;;;55.33;25.70;;;2.30;99.90;;;;;;5012425;28;20160;-74
2022/12/09 03:36:07;;;;;;;51.80;24.90;;;2.50;99.90;;;;;;5013994;28;20173;-74
2022/12/09 03:38:36;;;;;;;57.57;26.87;;;2.30;99.90;;;;;;5015214;28;20248;-74
2022/12/09 03:41:17;;;;;;;54.63;24.33;;;2.10;99.90;;;;;;5016126;28;20200;-74
2022/12/09 03:43:52;;;;;;;48.67;24.30;;;2.00;99.90;;;;;;5016284;28;20150;-75
2022/12/09 03:46:19;;;;;;;56.77;25.27;;;1.90;99.90;;;;;;5016154;28;20505;-74
2022/12/09 03:48:46;;;;;;;57.00;26.53;;;2.10;99.90;;;;;;5015838;28;20510;-74
2022/12/09 03:51:35;;;;;;;57.57;26.93;;;2.20;99.90;;;;;;5015890;28;20246;-73
2022/12/09 03:54:07;;;;;;;51.73;24.93;;;2.30;99.90;;;;;;5014713;28;20677;-74
2022/12/09 03:56:38;;;;;;;51.60;25.70;;;2.20;99.90;;;;;;5014546;28;20187;-74
2022/12/09 03:59:09;;;;;;;59.60;28.03;;;1.90;99.90;;;;;;5015655;28;20216;-73
2022/12/09 04:01:35;;;;;;;59.53;26.03;;;1.90;99.90;;;;;;5015763;28;20201;-74
2022/12/09 04:04:02;;;;;;;56.53;25.60;;;2.20;99.90;;;;;;5015711;28;20221;-73
2022/12/09 04:06:27;;;;;;;59.43;27.30;;;2.10;99.90;;;;;;5015672;28;20180;-74
2022/12/09 04:08:54;;;;;;;53.10;25.23;;;2.00;99.90;;;;;;5015577;28;20157;-74
2022/12/09 04:11:19;;;;;;;52.93;26.90;;;1.80;99.90;;;;;;5014336;28;20208;-73
2022/12/09 04:13:45;;;;;;;55.97;24.93;;;1.90;99.90;;;;;;5015537;28;20193;-73
2022/12/09 04:16:10;;;;;;;59.20;27.77;;;2.10;99.90;;;;;;5015454;28;20169;-75
2022/12/09 04:18:36;;;;;;;48.43;23.20;;;1.70;99.90;;;;;;5015230;28;20580;-73
2022/12/09 04:21:06;;;;;;;47.33;22.27;;;1.60;99.90;;;;;;5014170;28;20200;-73
2022/12/09 04:23:32;;;;;;;40.63;20.37;;;1.70;99.90;;;;;;5014155;28;20193;-72
2022/12/09 04:25:58;;;;;;;46.13;22.60;;;1.50;99.90;;;;;;5015331;28;20263;-73
2022/12/09 04:28:24;;;;;;;51.23;22.80;;;1.50;99.90;;;;;;5015087;28;20164;-73
2022/12/09 04:30:50;;;;;;;50.87;23.10;;;1.70;99.90;;;;;;5013791;28;20524;-73
2022/12/09 04:33:15;;;;;;;64.80;23.93;;;1.80;99.90;;;;;;5014990;28;20223;-73
2022/12/09 04:35:41;;;;;;;56.00;24.93;;;2.20;99.90;;;;;;5015124;28;20200;-73
2022/12/09 04:38:08;;;;;;;99.17;57.13;;;2.20;99.90;;;;;;5015114;28;20218;-73
2022/12/09 04:40:34;;;;;;;53.83;24.33;;;2.00;99.90;;;;;;5013761;28;20292;-74
2022/12/09 04:43:00;;;;;;;55.70;24.07;;;1.80;99.90;;;;;;5015088;28;20181;-74
2022/12/09 04:45:26;;;;;;;48.83;22.53;;;1.90;99.90;;;;;;5014966;28;20196;-74
2022/12/09 04:47:51;;;;;;;43.73;21.83;;;1.90;99.90;;;;;;5012993;28;20179;-75
2022/12/09 04:50:17;;;;;;;46.90;21.10;;;1.70;99.90;;;;;;5014953;28;20166;-73
2022/12/09 04:52:44;;;;;;;102.13;30.07;;;1.50;99.90;;;;;;5013350;28;20630;-74
2022/12/09 04:55:12;;;;;;;57.67;27.00;;;1.60;99.90;;;;;;5013480;28;20227;-74
2022/12/09 04:57:38;;;;;;;53.30;24.93;;;1.90;99.90;;;;;;5014424;28;20162;-74
2022/12/09 05:00:05;;;;;;;52.80;22.47;;;2.00;99.90;;;;;;5014455;28;20176;-74
2022/12/09 05:02:32;;;;;;;53.77;22.20;;;2.00;99.90;;;;;;5012771;28;20287;-74
2022/12/09 05:05:00;;;;;;;50.27;21.13;;;2.40;99.90;;;;;;5014553;28;20158;-74
2022/12/09 05:07:30;;;;;;;56.37;23.47;;;2.50;99.90;;;;;;5014491;28;20166;-74
2022/12/09 05:09:56;;;;;;;80.20;24.70;;;2.50;99.90;;;;;;5014293;28;20532;-74
2022/12/09 05:12:24;;;;;;;66.77;20.70;;;2.60;99.90;;;;;;5013026;28;20173;-74
2022/12/09 05:14:50;;;;;;;103.83;26.53;;;2.40;99.90;;;;;;5014301;28;20231;-74
2022/12/09 05:17:15;;;;;;;135.67;25.00;;;2.50;99.90;;;;;;5012898;28;20176;-74
2022/12/09 05:19:41;;;;;;;80.30;21.93;;;2.50;99.90;;;;;;5014187;28;20192;-74
2022/12/09 05:22:06;;;;;;;84.10;21.13;;;2.40;99.90;;;;;;5013651;28;20228;-74
2022/12/09 05:24:32;;;;;;;102.10;22.47;;;2.30;99.90;;;;;;5013994;28;20204;-73
2022/12/09 05:26:58;;;;;;;88.33;22.80;;;2.50;99.90;;;;;;5014115;28;20172;-74
2022/12/09 05:29:23;;;;;;;77.73;21.80;;;2.40;99.90;;;;;;5014022;28;20511;-73
2022/12/09 05:31:50;;;;;;;99.70;22.33;;;2.20;99.90;;;;;;5013501;28;20308;-73
2022/12/09 05:34:17;;;;;;;70.97;20.30;;;2.40;99.90;;;;;;5014096;28;20231;-74
2022/12/09 05:36:42;;;;;;;54.03;26.17;;;2.50;99.90;;;;;;4994446;28;20544;-73
2022/12/09 05:39:08;;;;;;;50.53;20.67;;;2.40;99.90;;;;;;4994298;28;20229;-73
2022/12/09 05:41:34;;;;;;;57.47;21.93;;;2.30;99.90;;;;;;5000624;28;20536;-74
2022/12/09 05:44:00;;;;;;;48.07;20.00;;;2.40;99.90;;;;;;5013834;28;20176;-73
2022/12/09 05:46:25;;;;;;;45.60;21.33;;;2.30;99.90;;;;;;5013738;28;20146;-74
2022/12/09 05:48:51;;;;;;;52.40;20.33;;;2.30;99.90;;;;;;5013656;28;20693;-74
2022/12/09 05:51:25;;;;;;;46.07;21.13;;;2.30;99.90;;;;;;5012156;28;20265;-75
2022/12/09 05:53:51;;;;;;;55.77;23.07;;;2.40;99.90;;;;;;5013466;28;20180;-74
2022/12/09 05:56:18;;;;;;;57.40;21.83;;;2.60;99.90;;;;;;5012353;28;20690;-73
2022/12/09 05:58:44;;;;;;;69.63;20.63;;;2.60;99.90;;;;;;5013463;28;20179;-74
2022/12/09 06:01:10;;;;;;;80.97;21.30;;;2.60;99.90;;;;;;5012445;28;20674;-74
2022/12/09 06:03:36;;;;;;;64.73;21.20;;;2.50;99.90;;;;;;5013493;28;20635;-73
2022/12/09 06:06:10;;;;;;;89.23;20.30;;;2.50;99.90;;;;;;5013384;28;20173;-74
2022/12/09 06:08:37;;;;;;;79.23;19.07;;;2.40;99.90;;;;;;5012735;28;20524;-74
2022/12/09 06:11:04;;;;;;;142.93;21.00;;;2.40;99.90;;;;;;5012908;28;20208;-75
2022/12/09 06:13:31;;;;;;;123.27;20.73;;;2.30;99.90;;;;;;5012885;28;20158;-74
2022/12/09 06:16:03;;;;;;;52.37;17.90;;;2.40;99.90;;;;;;5009329;28;20530;-74
2022/12/09 06:18:28;;;;;;;133.47;21.03;;;2.40;99.90;;;;;;5010968;28;20173;-73
2022/12/09 06:20:55;;;;;;;153.27;22.07;;;2.40;99.90;;;;;;5013759;28;20251;-74
2022/12/09 06:23:22;;;;;;;71.47;19.07;;;2.50;99.90;;;;;;5012602;28;20154;-74
2022/12/09 06:25:54;;;;;;;157.90;24.83;;;2.50;99.90;;;;;;5013707;28;20615;-74
2022/12/09 06:28:21;;;;;;;129.90;20.57;;;2.50;99.90;;;;;;5013309;28;20177;-72
2022/12/09 06:30:48;;;;;;;72.93;22.07;;;2.60;99.90;;;;;;5011733;28;20200;-74
2022/12/09 06:33:16;;;;;;;102.60;24.13;;;2.70;99.90;;;;;;5011826;28;20576;-75
2022/12/09 06:35:45;;;;;;;197.77;26.13;;;2.70;99.90;;;;;;5013071;28;20181;-75
2022/12/09 06:38:11;;;;;;;123.43;23.50;;;2.70;99.90;;;;;;5013289;28;20180;-73
2022/12/09 06:40:41;;;;;;;72.00;21.67;;;2.60;99.90;;;;;;5012786;28;20196;-73
2022/12/09 06:43:08;;;;;;;151.47;22.97;;;2.80;99.90;;;;;;5013291;28;20307;-73
2022/12/09 06:45:36;;;;;;;76.73;20.50;;;2.80;99.90;;;;;;5012771;28;20200;-74
2022/12/09 06:48:04;;;;;;;99.10;20.07;;;2.80;99.90;;;;;;5013184;28;20267;-73
2022/12/09 06:50:32;;;;;;;105.47;21.73;;;2.70;99.90;;;;;;5011901;28;20284;-73
2022/12/09 06:52:59;;;;;;;71.30;19.43;;;2.60;99.90;;;;;;5013263;28;20619;-73
2022/12/09 06:55:26;;;;;;;62.00;17.47;;;2.60;99.90;;;;;;5013321;28;20168;-73
2022/12/09 06:57:53;;;;;;;117.33;22.30;;;2.60;99.90;;;;;;5013159;28;20150;-71
2022/12/09 07:00:19;;;;;;;124.07;20.57;;;2.60;99.90;;;;;;5012942;28;20241;-71
2022/12/09 07:02:46;;;;;;;61.63;18.60;;;2.60;99.90;;;;;;5012937;28;20541;-71
2022/12/09 07:05:12;;;;;;;93.70;19.83;;;2.60;99.90;;;;;;5013329;28;20158;-71
2022/12/09 07:07:38;;;;;;;57.73;19.70;;;2.60;99.90;;;;;;5011681;28;20178;-71
2022/12/09 07:10:06;;;;;;;72.57;19.63;;;2.60;99.90;;;;;;5013052;28;20161;-71
2022/12/09 07:12:32;;;;;;;62.37;19.27;;;2.60;99.90;;;;;;5016424;28;20231;-70
2022/12/09 07:14:57;;;;;;;99.73;21.33;;;2.70;99.90;;;;;;5016993;28;20153;-72
2022/12/09 07:17:23;;;;;;;94.60;21.03;;;2.70;99.90;;;;;;5015250;28;20161;-70
2022/12/09 07:19:50;;;;;;;151.13;23.17;;;2.80;99.90;;;;;;5017013;28;20165;-70
2022/12/09 07:22:15;;;;;;;105.87;21.97;;;2.90;99.90;;;;;;5017005;28;20540;-72
2022/12/09 07:24:43;;;;;;;156.67;24.10;;;2.80;99.90;;;;;;5016842;28;20180;-71
2022/12/09 07:27:13;;;;;;;95.07;20.97;;;2.80;99.90;;;;;;5016947;28;20595;-71
2022/12/09 07:29:38;;;;;;;134.90;24.83;;;2.90;99.90;;;;;;5015853;28;20517;-71
2022/12/09 07:32:04;;;;;;;140.40;23.90;;;3.00;99.90;;;;;;5016452;28;20161;-71
2022/12/09 07:34:30;;;;;;;96.40;22.97;;;2.90;99.90;;;;;;5015791;28;20169;-71
2022/12/09 07:36:56;;;;;;;87.43;23.37;;;3.00;99.90;;;;;;5015908;28;20157;-71
2022/12/09 07:39:21;;;;;;;82.57;22.00;;;2.90;99.90;;;;;;5016092;28;20173;-71
2022/12/09 07:41:57;;;;;;;87.93;22.97;;;2.90;99.90;;;;;;5016074;28;20632;-72
2022/12/09 07:44:27;;;;;;;159.23;25.87;;;2.90;99.90;;;;;;5016241;28;20165;-71
2022/12/09 07:46:53;;;;;;;84.87;23.53;;;2.90;99.90;;;;;;5015967;28;20244;-71
2022/12/09 07:49:19;;;;;;;85.80;22.90;;;2.90;99.90;;;;;;5016246;28;20263;-71
2022/12/09 07:51:45;;;;;;;78.70;22.30;;;2.90;99.90;;;;;;5016008;28;20200;-71
2022/12/09 07:54:13;;;;;;;82.67;23.23;;;2.90;99.90;;;;;;5016137;28;20251;-71
2022/12/09 07:56:39;;;;;;;97.97;23.83;;;2.90;99.90;;;;;;5015692;28;20180;-71
2022/12/09 07:59:06;;;;;;;61.27;21.37;;;2.80;99.90;;;;;;5015972;28;20154;-71
2022/12/09 08:01:32;;;;;;;83.60;23.87;;;2.90;99.90;;;;;;5015788;28;20687;-71
2022/12/09 08:03:57;;;;;;;110.03;26.73;;;2.90;99.90;;;;;;5014752;28;20252;-71
2022/12/09 08:06:25;;;;;;;104.30;23.57;;;3.00;99.90;;;;;;5015821;28;20180;-71
2022/12/09 08:08:51;;;;;;;122.33;25.07;;;3.10;99.90;;;;;;5015675;28;20165;-71
2022/12/09 08:11:20;;;;;;;74.00;22.50;;;3.10;99.90;;;;;;5014368;28;20568;-71
2022/12/09 08:13:46;;;;;;;60.90;22.23;;;3.10;99.90;;;;;;5014298;28;20173;-71
2022/12/09 08:16:14;;;;;;;72.70;21.67;;;2.90;99.90;;;;;;5015728;28;20169;-73
2022/12/09 08:18:41;;;;;;;65.70;22.93;;;2.90;99.90;;;;;;5015506;28;20639;-71
2022/12/09 08:21:09;;;;;;;69.00;22.57;;;2.90;99.90;;;;;;5014247;28;20484;-71
2022/12/09 08:23:36;;;;;;;68.87;22.37;;;3.00;99.90;;;;;;5015409;28;20162;-72
2022/12/09 08:26:02;;;;;;;57.63;20.97;;;3.00;99.90;;;;;;5015364;28;20563;-71
2022/12/09 08:28:28;;;;;;;61.67;20.73;;;3.00;99.90;;;;;;5015323;28;20164;-71
2022/12/09 08:30:54;;;;;;;59.17;21.67;;;2.90;99.90;;;;;;5015332;28;20192;-73
2022/12/09 08:33:20;;;;;;;51.73;20.13;;;2.90;99.90;;;;;;5015458;28;20638;-72
2022/12/09 08:35:45;;;;;;;53.57;19.23;;;2.90;99.90;;;;;;5015232;28;20169;-71
2022/12/09 08:38:11;;;;;;;57.93;21.33;;;3.00;99.90;;;;;;5015211;28;20190;-73
2022/12/09 08:40:37;;;;;;;66.13;21.57;;;3.00;99.90;;;;;;5014904;28;20295;-71
2022/12/09 08:43:10;;;;;;;68.27;21.20;;;3.10;99.90;;;;;;5015157;28;20669;-71
2022/12/09 08:45:40;;;;;;;57.60;19.83;;;3.10;99.90;;;;;;5015097;28;20634;-72
2022/12/09 08:48:06;;;;;;;49.17;18.23;;;3.10;99.90;;;;;;5014943;28;20642;-73
2022/12/09 08:50:33;;;;;;;38.77;15.63;;;3.10;99.90;;;;;;5015053;28;20588;-72
2022/12/09 08:52:59;;;;;;;35.00;15.80;;;3.10;99.90;;;;;;5014843;28;20638;-71
2022/12/09 08:55:24;;;;;;;31.07;15.50;;;2.90;99.90;;;;;;5014763;28;20169;-72
2022/12/09 08:57:50;;;;;;;32.50;14.63;;;2.90;99.90;;;;;;5013351;28;20173;-72
2022/12/09 09:00:17;;;;;;;33.70;15.53;;;2.90;99.90;;;;;;5014793;28;20162;-73
2022/12/09 09:02:42;;;;;;;31.67;14.13;;;2.90;99.90;;;;;;5014684;28;20258;-73
2022/12/09 09:05:08;;;;;;;32.10;15.03;;;3.00;99.90;;;;;;5013521;28;20174;-72
2022/12/09 09:07:35;;;;;;;32.50;15.03;;;2.80;99.90;;;;;;5014500;28;20157;-72
2022/12/09 09:10:01;;;;;;;39.97;15.93;;;2.80;99.90;;;;;;5013454;28;20680;-71
2022/12/09 09:12:27;;;;;;;32.30;15.47;;;2.90;99.90;;;;;;5013323;28;20200;-72
2022/12/09 09:14:53;;;;;;;39.93;16.47;;;2.90;99.90;;;;;;5013051;28;20387;-71
2022/12/09 09:17:20;;;;;;;40.10;16.43;;;3.00;99.90;;;;;;5013247;28;20169;-71
2022/12/09 09:19:45;;;;;;;33.13;15.93;;;3.20;99.90;;;;;;5014015;28;20185;-71
2022/12/09 09:22:12;;;;;;;40.63;17.23;;;3.00;99.90;;;;;;5014314;28;20287;-72
2022/12/09 09:24:38;;;;;;;34.60;15.57;;;3.10;99.90;;;;;;5013986;28;20208;-73
2022/12/09 09:27:03;;;;;;;36.53;15.77;;;3.10;99.90;;;;;;5012803;28;20200;-71
2022/12/09 09:29:29;;;;;;;34.37;16.03;;;3.20;99.90;;;;;;5012892;28;20282;-71
2022/12/09 09:31:56;;;;;;;39.60;17.57;;;3.30;99.90;;;;;;5013890;28;20201;-71
2022/12/09 09:34:23;;;;;;;45.17;18.23;;;3.30;99.90;;;;;;5013496;28;20554;-72
2022/12/09 09:36:52;;;;;;;43.20;18.93;;;3.40;99.90;;;;;;5014051;28;20170;-71
2022/12/09 09:39:18;;;;;;;40.33;18.50;;;3.40;99.90;;;;;;5013755;28;20173;-72
2022/12/09 09:41:49;;;;;;;39.80;16.87;;;3.50;99.90;;;;;;5013858;28;20198;-72
2022/12/09 09:44:39;;;;;;;38.77;18.27;;;3.50;99.90;;;;;;5013894;28;20172;-72
2022/12/09 09:47:25;;;;;;;40.07;18.57;;;3.50;99.90;;;;;;5013404;28;20188;-72
2022/12/09 09:50:13;;;;;;;41.30;17.20;;;3.60;99.90;;;;;;5013753;28;20248;-72
2022/12/09 09:52:41;;;;;;;36.53;16.40;;;3.70;99.90;;;;;;5001862;28;20169;-72
2022/12/09 09:55:15;;;;;;;33.10;16.40;;;3.70;99.90;;;;;;5013705;28;20172;-71
2022/12/09 09:57:59;;;;;;;37.80;18.13;;;3.80;99.90;;;;;;5013718;28;20231;-72
2022/12/09 10:00:38;;;;;;;35.53;17.30;;;3.80;99.90;;;;;;5013507;28;20161;-72
2022/12/09 10:03:09;;;;;;;39.47;17.90;;;3.60;99.90;;;;;;5012363;28;20641;-71
2022/12/09 10:05:57;;;;;;;38.07;16.77;;;3.60;99.90;;;;;;5013494;28;20165;-72
2022/12/09 10:08:55;;;;;;;41.03;17.07;;;3.80;99.90;;;;;;5011986;28;20255;-72
2022/12/09 10:11:36;;;;;;;33.33;15.10;;;3.80;99.90;;;;;;5013525;28;20169;-71
2022/12/09 10:14:20;;;;;;;34.87;15.83;;;3.60;99.90;;;;;;5013482;28;20181;-73
2022/12/09 10:17:23;;;;;;;40.13;17.17;;;3.80;99.90;;;;;;5013408;28;20169;-75
2022/12/09 10:19:54;;;;;;;31.67;15.10;;;3.90;99.90;;;;;;5012661;28;20185;-72
2022/12/09 10:22:27;;;;;;;31.50;15.13;;;3.80;99.90;;;;;;5013401;28;20239;-72
2022/12/09 10:24:57;;;;;;;32.33;15.40;;;3.60;99.90;;;;;;5013194;28;20240;-72
2022/12/09 10:27:47;;;;;;;34.43;15.63;;;3.70;99.90;;;;;;5013106;28;20642;-71
2022/12/09 10:30:14;;;;;;;30.70;15.27;;;3.80;99.90;;;;;;5013042;28;20186;-72
2022/12/09 10:32:40;;;;;;;30.13;14.33;;;3.90;99.90;;;;;;5013198;28;20204;-72
2022/12/09 10:35:19;;;;;;;33.10;15.27;;;4.00;99.90;;;;;;5013144;28;20192;-72
2022/12/09 10:37:46;;;;;;;33.00;16.13;;;4.10;99.90;;;;;;5013039;28;20588;-71
2022/12/09 10:40:20;;;;;;;31.03;15.33;;;4.20;99.90;;;;;;5013152;28;20162;-71
2022/12/09 10:45:32;;;;;;;27.23;12.87;;;4.30;99.90;;;;;;5012408;28;20188;-72
2022/12/09 10:47:58;;;;;;;24.90;12.87;;;4.30;99.90;;;;;;5012851;28;20546;-71
2022/12/09 10:50:34;;;;;;;26.10;13.33;;;4.40;99.90;;;;;;5012707;28;20158;-72
2022/12/09 10:53:06;;;;;;;29.10;14.40;;;4.50;99.90;;;;;;5013091;28;20157;-71
2022/12/09 10:55:39;;;;;;;32.23;15.00;;;4.60;99.90;;;;;;5012968;28;20169;-71
2022/12/09 10:58:24;;;;;;;26.40;14.17;;;4.70;99.90;;;;;;5011759;28;20582;-72
2022/12/09 11:01:11;;;;;;;26.60;13.60;;;4.70;99.90;;;;;;5011365;28;20210;-72
2022/12/09 11:03:50;;;;;;;28.77;15.13;;;4.70;99.90;;;;;;5012873;28;20316;-72
2022/12/09 11:06:36;;;;;;;30.77;16.00;;;4.70;99.90;;;;;;5012665;28;20165;-72
2022/12/09 11:09:02;;;;;;;35.30;17.03;;;4.70;99.90;;;;;;5011532;28;20178;-72
2022/12/09 11:11:48;;;;;;;30.63;15.43;;;4.60;99.90;;;;;;5012691;28;20248;-71
2022/12/09 11:14:31;;;;;;;35.47;16.37;;;4.60;99.90;;;;;;5012795;28;20259;-72
2022/12/09 11:17:19;;;;;;;28.40;16.00;;;4.60;99.90;;;;;;5011271;28;20195;-72
2022/12/09 11:19:54;;;;;;;31.17;16.90;;;4.60;99.90;;;;;;5012582;28;20161;-72
2022/12/09 11:22:37;;;;;;;31.03;16.07;;;4.40;99.90;;;;;;5011291;28;20200;-72
2022/12/09 11:25:25;;;;;;;28.07;16.53;;;4.30;99.90;;;;;;5012637;28;20578;-72
2022/12/09 11:28:03;;;;;;;29.70;14.87;;;4.30;99.90;;;;;;5012469;28;20639;-73
2022/12/09 11:30:48;;;;;;;32.00;16.27;;;4.30;99.90;;;;;;5012615;28;20269;-71
2022/12/09 11:33:13;;;;;;;31.30;15.13;;;4.40;99.90;;;;;;5011006;28;20268;-72
2022/12/09 11:35:41;;;;;;;29.80;15.43;;;4.30;99.90;;;;;;5012499;28;20252;-72
2022/12/09 11:38:27;;;;;;;33.53;15.40;;;4.20;99.90;;;;;;5012283;28;20177;-73
2022/12/09 11:41:07;;;;;;;30.47;15.97;;;4.20;99.90;;;;;;5012547;28;20748;-72
2022/12/09 11:43:51;;;;;;;34.07;16.13;;;4.40;99.90;;;;;;5012482;28;20185;-73
2022/12/09 11:46:25;;;;;;;34.77;18.07;;;4.40;99.90;;;;;;5012507;28;20737;-71
2022/12/09 11:48:55;;;;;;;30.70;16.43;;;4.40;99.90;;;;;;5011267;28;20757;-71
2022/12/09 11:51:33;;;;;;;29.13;17.40;;;4.30;99.90;;;;;;5012550;28;20541;-71
2022/12/09 11:54:04;;;;;;;30.63;15.83;;;4.30;99.90;;;;;;5012349;28;20176;-71
2022/12/09 11:56:33;;;;;;;29.37;16.13;;;4.20;99.90;;;;;;5013312;28;20247;-71
2022/12/09 11:59:21;;;;;;;33.77;17.53;;;4.20;99.90;;;;;;5016017;28;20316;-71
2022/12/09 12:02:24;;;;;;;30.87;16.83;;;4.10;99.90;;;;;;5015957;28;20181;-73
2022/12/09 12:05:19;;;;;;;32.60;17.77;;;4.20;99.90;;;;;;5016004;28;20188;-71
2022/12/09 12:07:55;;;;;;;36.87;19.13;;;4.20;99.90;;;;;;5015589;28;20165;-72
2022/12/09 12:10:29;;;;;;;33.90;19.00;;;4.20;99.90;;;;;;5015911;28;20252;-73
2022/12/09 12:13:22;;;;;;;36.60;18.37;;;4.20;99.90;;;;;;5015697;28;20194;-73
2022/12/09 12:16:16;;;;;;;37.27;19.17;;;4.30;99.90;;;;;;5015630;28;20170;-71
2022/12/09 12:19:00;;;;;;;42.33;19.93;;;4.20;99.90;;;;;;5015465;28;20189;-72
2022/12/09 12:21:38;;;;;;;37.93;20.03;;;4.10;99.90;;;;;;5015644;28;20229;-72
2022/12/09 12:24:07;;;;;;;37.13;19.63;;;4.10;99.90;;;;;;5014461;28;20242;-71
2022/12/09 12:26:49;;;;;;;29.33;16.60;;;4.20;99.90;;;;;;5015650;28;20192;-72
2022/12/09 12:29:43;;;;;;;34.93;18.47;;;4.10;99.90;;;;;;5015473;28;20198;-72
2022/12/09 12:32:46;;;;;;;29.63;16.30;;;4.20;99.90;;;;;;5015207;28;20177;-71
2022/12/09 12:35:29;;;;;;;30.70;17.67;;;4.10;99.90;;;;;;5014124;28;20272;-72
2022/12/09 12:38:18;;;;;;;32.63;18.33;;;4.10;99.90;;;;;;5013810;28;20183;-72
2022/12/09 12:40:57;;;;;;;41.37;20.90;;;4.20;99.90;;;;;;5010195;28;20211;-72
2022/12/09 12:46:42;;;;;;;37.07;21.90;;;4.40;99.90;;;;;;5015099;28;20251;-73
2022/12/09 12:49:35;;;;;;;38.13;21.73;;;4.30;99.90;;;;;;5014815;28;20254;-72
2022/12/09 12:52:06;;;;;;;38.80;20.67;;;4.20;99.90;;;;;;5015350;28;20260;-72
2022/12/09 12:55:06;;;;;;;36.67;20.20;;;4.30;99.90;;;;;;5014862;28;20645;-73
2022/12/09 12:57:31;;;;;;;40.03;21.80;;;4.30;99.90;;;;;;5013541;28;20204;-71
2022/12/09 13:00:07;;;;;;;36.93;21.77;;;4.40;99.90;;;;;;5014720;28;20165;-72